12  °C
Temperature
12  °C
  Dewpoint
   Humidity
Temp | Dewpoint | Humidity
5  km/h
Wind Speed
3  mph
Wind Speed
3  kts
Wind Speed
150°
South South
East

Wind Speed
Clear
Conditions
Pressure 1019.92 (hPa) - 30.12 (in)
Visibility 6.2 (mi) - 10.0 (km)

Current Conditions
EHRD
Location 6km (3.2mi)
Metar :EHRD 170225Z AUTO 15003KT 9999 NCD 12/12 Q1020 NOSIG
Mon 17th June 04:25 am

Airport
  Metar Aviation API Data Provided by https://www.checkwx.com/ CSS/SVG/PHP scripts by weather34.com © 2015-2019